sensor_id;sensor_type;location;lat;lon;timestamp;P1;durP1;ratioP1;P2;durP2;ratioP2
76477;SDS011;65309;49.790;18.972;2023-06-22T00:00:59;8.60;;;5.63;;
76477;SDS011;65309;49.790;18.972;2023-06-22T00:06:07;9.00;;;6.95;;
76477;SDS011;65309;49.790;18.972;2023-06-22T00:16:12;7.82;;;6.03;;
76477;SDS011;65309;49.790;18.972;2023-06-22T00:21:14;9.55;;;6.63;;
76477;SDS011;65309;49.790;18.972;2023-06-22T00:26:16;11.90;;;6.15;;
76477;SDS011;65309;49.790;18.972;2023-06-22T00:31:20;11.13;;;7.13;;
76477;SDS011;65309;49.790;18.972;2023-06-22T00:36:22;8.40;;;6.35;;
76477;SDS011;65309;49.790;18.972;2023-06-22T00:41:26;13.75;;;6.07;;
76477;SDS011;65309;49.790;18.972;2023-06-22T00:46:31;10.75;;;6.25;;
76477;SDS011;65309;49.790;18.972;2023-06-22T00:51:34;9.60;;;6.60;;
76477;SDS011;65309;49.790;18.972;2023-06-22T00:56:39;9.77;;;7.05;;
76477;SDS011;65309;49.790;18.972;2023-06-22T01:01:43;14.77;;;6.40;;
76477;SDS011;65309;49.790;18.972;2023-06-22T01:06:48;7.50;;;5.72;;
76477;SDS011;65309;49.790;18.972;2023-06-22T01:11:57;12.88;;;6.60;;
76477;SDS011;65309;49.790;18.972;2023-06-22T01:17:04;9.88;;;6.32;;
76477;SDS011;65309;49.790;18.972;2023-06-22T01:22:09;9.00;;;5.88;;
76477;SDS011;65309;49.790;18.972;2023-06-22T01:27:18;9.65;;;6.25;;
76477;SDS011;65309;49.790;18.972;2023-06-22T01:32:32;8.50;;;5.68;;
76477;SDS011;65309;49.790;18.972;2023-06-22T01:37:36;10.25;;;4.88;;
76477;SDS011;65309;49.790;18.972;2023-06-22T01:42:40;9.68;;;5.03;;
76477;SDS011;65309;49.790;18.972;2023-06-22T01:47:46;6.47;;;4.22;;
76477;SDS011;65309;49.790;18.972;2023-06-22T01:52:49;5.93;;;4.28;;
76477;SDS011;65309;49.790;18.972;2023-06-22T02:02:56;5.95;;;3.63;;
76477;SDS011;65309;49.790;18.972;2023-06-22T02:08:06;8.50;;;4.40;;
76477;SDS011;65309;49.790;18.972;2023-06-22T02:13:11;7.80;;;4.18;;
76477;SDS011;65309;49.790;18.972;2023-06-22T02:18:16;12.27;;;4.20;;
76477;SDS011;65309;49.790;18.972;2023-06-22T02:23:18;7.25;;;4.45;;
76477;SDS011;65309;49.790;18.972;2023-06-22T02:33:23;7.53;;;4.57;;
76477;SDS011;65309;49.790;18.972;2023-06-22T02:38:25;7.35;;;4.35;;
76477;SDS011;65309;49.790;18.972;2023-06-22T02:43:28;5.13;;;3.80;;
76477;SDS011;65309;49.790;18.972;2023-06-22T02:48:31;6.22;;;4.00;;
76477;SDS011;65309;49.790;18.972;2023-06-22T02:53:33;6.10;;;4.40;;
76477;SDS011;65309;49.790;18.972;2023-06-22T02:58:35;7.78;;;4.53;;
76477;SDS011;65309;49.790;18.972;2023-06-22T03:03:41;11.02;;;4.47;;
76477;SDS011;65309;49.790;18.972;2023-06-22T03:08:43;7.80;;;3.97;;
76477;SDS011;65309;49.790;18.972;2023-06-22T03:18:49;7.80;;;4.10;;
76477;SDS011;65309;49.790;18.972;2023-06-22T03:23:51;6.35;;;4.30;;
76477;SDS011;65309;49.790;18.972;2023-06-22T03:28:53;9.98;;;4.38;;
76477;SDS011;65309;49.790;18.972;2023-06-22T03:33:57;7.80;;;4.28;;
76477;SDS011;65309;49.790;18.972;2023-06-22T03:38:59;7.93;;;4.85;;
76477;SDS011;65309;49.790;18.972;2023-06-22T03:44:01;5.65;;;4.32;;
76477;SDS011;65309;49.790;18.972;2023-06-22T03:49:04;6.35;;;4.10;;
76477;SDS011;65309;49.790;18.972;2023-06-22T03:54:06;6.32;;;3.97;;
76477;SDS011;65309;49.790;18.972;2023-06-22T03:59:08;6.13;;;4.68;;
76477;SDS011;65309;49.790;18.972;2023-06-22T04:04:12;5.38;;;4.07;;
76477;SDS011;65309;49.790;18.972;2023-06-22T04:09:15;9.32;;;5.22;;
76477;SDS011;65309;49.790;18.972;2023-06-22T04:14:17;6.70;;;4.25;;
76477;SDS011;65309;49.790;18.972;2023-06-22T04:19:21;9.70;;;4.97;;
76477;SDS011;65309;49.790;18.972;2023-06-22T04:24:23;8.45;;;4.30;;
76477;SDS011;65309;49.790;18.972;2023-06-22T04:29:25;5.93;;;4.53;;
76477;SDS011;65309;49.790;18.972;2023-06-22T04:34:32;5.68;;;3.97;;
76477;SDS011;65309;49.790;18.972;2023-06-22T04:39:34;7.72;;;4.55;;
76477;SDS011;65309;49.790;18.972;2023-06-22T04:44:36;6.93;;;4.57;;
76477;SDS011;65309;49.790;18.972;2023-06-22T04:49:39;7.75;;;4.15;;
76477;SDS011;65309;49.790;18.972;2023-06-22T04:54:44;9.57;;;4.85;;
76477;SDS011;65309;49.790;18.972;2023-06-22T04:59:49;8.57;;;4.85;;
76477;SDS011;65309;49.790;18.972;2023-06-22T05:04:53;8.23;;;4.47;;
76477;SDS011;65309;49.790;18.972;2023-06-22T05:09:58;10.00;;;5.40;;
76477;SDS011;65309;49.790;18.972;2023-06-22T05:15:01;9.45;;;4.28;;
76477;SDS011;65309;49.790;18.972;2023-06-22T05:20:05;8.25;;;5.40;;
76477;SDS011;65309;49.790;18.972;2023-06-22T05:25:09;6.05;;;4.95;;
76477;SDS011;65309;49.790;18.972;2023-06-22T05:30:12;9.00;;;5.95;;
76477;SDS011;65309;49.790;18.972;2023-06-22T05:35:16;8.77;;;5.60;;
76477;SDS011;65309;49.790;18.972;2023-06-22T05:40:19;9.05;;;4.70;;
76477;SDS011;65309;49.790;18.972;2023-06-22T05:45:21;10.82;;;5.30;;
76477;SDS011;65309;49.790;18.972;2023-06-22T05:50:24;9.02;;;5.60;;
76477;SDS011;65309;49.790;18.972;2023-06-22T05:55:26;10.57;;;5.60;;
76477;SDS011;65309;49.790;18.972;2023-06-22T06:00:28;8.18;;;5.45;;
76477;SDS011;65309;49.790;18.972;2023-06-22T06:05:32;6.75;;;5.72;;
76477;SDS011;65309;49.790;18.972;2023-06-22T06:10:35;9.15;;;4.88;;
76477;SDS011;65309;49.790;18.972;2023-06-22T06:15:37;10.50;;;5.93;;
76477;SDS011;65309;49.790;18.972;2023-06-22T06:20:41;8.77;;;6.40;;
76477;SDS011;65309;49.790;18.972;2023-06-22T06:25:43;11.18;;;5.57;;
76477;SDS011;65309;49.790;18.972;2023-06-22T06:30:45;15.45;;;7.00;;
76477;SDS011;65309;49.790;18.972;2023-06-22T06:35:50;10.00;;;7.35;;
76477;SDS011;65309;49.790;18.972;2023-06-22T06:40:52;12.95;;;6.18;;
76477;SDS011;65309;49.790;18.972;2023-06-22T06:45:54;11.05;;;6.22;;
76477;SDS011;65309;49.790;18.972;2023-06-22T06:50:57;11.80;;;7.30;;
76477;SDS011;65309;49.790;18.972;2023-06-22T06:56:00;10.90;;;7.70;;
76477;SDS011;65309;49.790;18.972;2023-06-22T07:01:02;20.48;;;8.82;;
76477;SDS011;65309;49.790;18.972;2023-06-22T07:06:06;13.50;;;9.18;;
76477;SDS011;65309;49.790;18.972;2023-06-22T07:11:08;12.27;;;8.68;;
76477;SDS011;65309;49.790;18.972;2023-06-22T07:16:10;13.20;;;9.25;;
76477;SDS011;65309;49.790;18.972;2023-06-22T07:21:13;13.45;;;9.52;;
76477;SDS011;65309;49.790;18.972;2023-06-22T07:26:15;15.55;;;10.85;;
76477;SDS011;65309;49.790;18.972;2023-06-22T07:31:18;13.30;;;10.25;;
76477;SDS011;65309;49.790;18.972;2023-06-22T07:36:22;19.15;;;11.77;;
76477;SDS011;65309;49.790;18.972;2023-06-22T07:41:24;17.48;;;11.93;;
76477;SDS011;65309;49.790;18.972;2023-06-22T07:46:26;17.48;;;12.15;;
76477;SDS011;65309;49.790;18.972;2023-06-22T07:51:29;17.42;;;10.68;;
76477;SDS011;65309;49.790;18.972;2023-06-22T07:56:31;18.30;;;12.35;;
76477;SDS011;65309;49.790;18.972;2023-06-22T08:01:34;19.77;;;12.25;;
76477;SDS011;65309;49.790;18.972;2023-06-22T08:06:38;14.98;;;12.10;;
76477;SDS011;65309;49.790;18.972;2023-06-22T08:11:40;17.65;;;13.32;;
76477;SDS011;65309;49.790;18.972;2023-06-22T08:16:42;21.73;;;13.75;;
76477;SDS011;65309;49.790;18.972;2023-06-22T08:21:45;21.70;;;13.32;;
76477;SDS011;65309;49.790;18.972;2023-06-22T08:26:47;16.90;;;12.73;;
76477;SDS011;65309;49.790;18.972;2023-06-22T08:31:51;16.23;;;14.00;;
76477;SDS011;65309;49.790;18.972;2023-06-22T08:36:54;20.15;;;14.13;;
76477;SDS011;65309;49.790;18.972;2023-06-22T08:41:56;15.10;;;12.75;;
76477;SDS011;65309;49.790;18.972;2023-06-22T08:46:58;16.63;;;12.05;;
76477;SDS011;65309;49.790;18.972;2023-06-22T08:52:02;22.67;;;14.43;;
76477;SDS011;65309;49.790;18.972;2023-06-22T08:57:05;21.13;;;13.65;;
76477;SDS011;65309;49.790;18.972;2023-06-22T09:02:07;18.42;;;13.50;;
76477;SDS011;65309;49.790;18.972;2023-06-22T09:07:11;19.45;;;12.65;;
76477;SDS011;65309;49.790;18.972;2023-06-22T09:12:13;17.80;;;13.00;;
76477;SDS011;65309;49.790;18.972;2023-06-22T09:17:15;18.05;;;13.57;;
76477;SDS011;65309;49.790;18.972;2023-06-22T09:22:18;16.52;;;13.43;;
76477;SDS011;65309;49.790;18.972;2023-06-22T09:27:20;12.88;;;11.15;;
76477;SDS011;65309;49.790;18.972;2023-06-22T09:32:22;12.70;;;10.95;;
76477;SDS011;65309;49.790;18.972;2023-06-22T09:37:26;16.67;;;12.32;;
76477;SDS011;65309;49.790;18.972;2023-06-22T09:42:28;11.45;;;8.95;;
76477;SDS011;65309;49.790;18.972;2023-06-22T09:47:30;14.90;;;11.60;;
76477;SDS011;65309;49.790;18.972;2023-06-22T09:52:33;17.48;;;10.57;;
76477;SDS011;65309;49.790;18.972;2023-06-22T09:57:49;13.13;;;10.10;;
76477;SDS011;65309;49.790;18.972;2023-06-22T10:02:51;13.80;;;10.73;;
76477;SDS011;65309;49.790;18.972;2023-06-22T10:07:55;15.45;;;10.65;;
76477;SDS011;65309;49.790;18.972;2023-06-22T10:12:57;12.43;;;10.10;;
76477;SDS011;65309;49.790;18.972;2023-06-22T10:18:04;13.68;;;10.55;;
76477;SDS011;65309;49.790;18.972;2023-06-22T10:23:08;18.00;;;10.52;;
76477;SDS011;65309;49.790;18.972;2023-06-22T10:28:10;12.98;;;11.48;;
76477;SDS011;65309;49.790;18.972;2023-06-22T10:33:12;12.98;;;10.15;;
76477;SDS011;65309;49.790;18.972;2023-06-22T10:38:15;14.00;;;9.68;;
76477;SDS011;65309;49.790;18.972;2023-06-22T10:43:18;12.98;;;10.02;;
76477;SDS011;65309;49.790;18.972;2023-06-22T10:48:20;12.85;;;10.43;;
76477;SDS011;65309;49.790;18.972;2023-06-22T10:53:23;13.10;;;10.48;;
76477;SDS011;65309;49.790;18.972;2023-06-22T10:58:25;13.68;;;11.55;;
76477;SDS011;65309;49.790;18.972;2023-06-22T11:03:28;14.55;;;11.30;;
76477;SDS011;65309;49.790;18.972;2023-06-22T11:08:31;15.63;;;11.20;;
76477;SDS011;65309;49.790;18.972;2023-06-22T11:13:33;14.70;;;11.10;;
76477;SDS011;65309;49.790;18.972;2023-06-22T11:18:35;16.20;;;13.23;;
76477;SDS011;65309;49.790;18.972;2023-06-22T11:23:39;13.82;;;11.95;;
76477;SDS011;65309;49.790;18.972;2023-06-22T11:28:41;14.82;;;12.00;;
76477;SDS011;65309;49.790;18.972;2023-06-22T11:33:43;15.40;;;11.68;;
76477;SDS011;65309;49.790;18.972;2023-06-22T11:38:48;14.35;;;11.23;;
76477;SDS011;65309;49.790;18.972;2023-06-22T11:43:51;13.68;;;10.75;;
76477;SDS011;65309;49.790;18.972;2023-06-22T11:48:53;14.45;;;10.98;;
76477;SDS011;65309;49.790;18.972;2023-06-22T11:53:56;14.30;;;11.18;;
76477;SDS011;65309;49.790;18.972;2023-06-22T11:58:58;15.15;;;11.32;;
76477;SDS011;65309;49.790;18.972;2023-06-22T12:04:00;14.73;;;10.77;;
76477;SDS011;65309;49.790;18.972;2023-06-22T12:09:04;15.82;;;11.43;;
76477;SDS011;65309;49.790;18.972;2023-06-22T12:14:06;12.77;;;10.13;;
76477;SDS011;65309;49.790;18.972;2023-06-22T12:19:08;15.82;;;10.23;;
76477;SDS011;65309;49.790;18.972;2023-06-22T12:24:12;13.02;;;10.23;;
76477;SDS011;65309;49.790;18.972;2023-06-22T12:29:14;11.25;;;9.75;;
76477;SDS011;65309;49.790;18.972;2023-06-22T12:34:16;11.18;;;9.52;;
76477;SDS011;65309;49.790;18.972;2023-06-22T12:39:19;18.10;;;10.73;;
76477;SDS011;65309;49.790;18.972;2023-06-22T12:44:22;15.18;;;10.85;;
76477;SDS011;65309;49.790;18.972;2023-06-22T12:49:24;12.55;;;10.35;;
76477;SDS011;65309;49.790;18.972;2023-06-22T12:54:27;13.77;;;11.40;;
76477;SDS011;65309;49.790;18.972;2023-06-22T12:59:35;14.10;;;10.23;;
76477;SDS011;65309;49.790;18.972;2023-06-22T13:04:37;12.10;;;10.38;;
76477;SDS011;65309;49.790;18.972;2023-06-22T13:09:41;13.90;;;9.75;;
76477;SDS011;65309;49.790;18.972;2023-06-22T13:14:43;12.30;;;9.93;;
76477;SDS011;65309;49.790;18.972;2023-06-22T13:19:46;13.38;;;9.57;;
76477;SDS011;65309;49.790;18.972;2023-06-22T13:24:49;14.52;;;10.40;;
76477;SDS011;65309;49.790;18.972;2023-06-22T13:29:52;11.77;;;9.38;;
76477;SDS011;65309;49.790;18.972;2023-06-22T13:34:54;15.98;;;9.68;;
76477;SDS011;65309;49.790;18.972;2023-06-22T13:39:57;14.40;;;11.05;;
76477;SDS011;65309;49.790;18.972;2023-06-22T13:45:01;12.85;;;10.88;;
76477;SDS011;65309;49.790;18.972;2023-06-22T13:50:03;10.88;;;9.45;;
76477;SDS011;65309;49.790;18.972;2023-06-22T13:55:08;10.73;;;9.45;;
76477;SDS011;65309;49.790;18.972;2023-06-22T14:00:12;13.30;;;9.40;;
76477;SDS011;65309;49.790;18.972;2023-06-22T14:05:14;12.40;;;9.27;;
76477;SDS011;65309;49.790;18.972;2023-06-22T14:10:17;11.00;;;9.43;;
76477;SDS011;65309;49.790;18.972;2023-06-22T14:15:19;13.57;;;9.88;;
76477;SDS011;65309;49.790;18.972;2023-06-22T14:20:21;12.63;;;8.75;;
76477;SDS011;65309;49.790;18.972;2023-06-22T14:25:25;10.60;;;8.27;;
76477;SDS011;65309;49.790;18.972;2023-06-22T14:30:27;10.00;;;8.82;;
76477;SDS011;65309;49.790;18.972;2023-06-22T14:35:29;9.27;;;8.27;;
76477;SDS011;65309;49.790;18.972;2023-06-22T14:40:33;9.02;;;7.65;;
76477;SDS011;65309;49.790;18.972;2023-06-22T14:45:49;9.82;;;7.88;;
76477;SDS011;65309;49.790;18.972;2023-06-22T14:50:53;10.82;;;7.40;;
76477;SDS011;65309;49.790;18.972;2023-06-22T14:55:57;9.43;;;7.85;;
76477;SDS011;65309;49.790;18.972;2023-06-22T15:00:59;11.18;;;7.97;;
76477;SDS011;65309;49.790;18.972;2023-06-22T15:06:02;13.88;;;7.35;;
76477;SDS011;65309;49.790;18.972;2023-06-22T15:11:06;10.63;;;7.50;;
76477;SDS011;65309;49.790;18.972;2023-06-22T15:16:08;10.80;;;8.00;;
76477;SDS011;65309;49.790;18.972;2023-06-22T15:21:11;10.55;;;7.03;;
76477;SDS011;65309;49.790;18.972;2023-06-22T15:26:14;10.48;;;7.63;;
76477;SDS011;65309;49.790;18.972;2023-06-22T15:31:16;9.32;;;7.30;;
76477;SDS011;65309;49.790;18.972;2023-06-22T15:36:18;12.15;;;8.40;;
76477;SDS011;65309;49.790;18.972;2023-06-22T15:41:22;10.30;;;8.13;;
76477;SDS011;65309;49.790;18.972;2023-06-22T15:46:24;12.40;;;7.85;;
76477;SDS011;65309;49.790;18.972;2023-06-22T15:51:26;9.85;;;7.53;;
76477;SDS011;65309;49.790;18.972;2023-06-22T15:56:31;9.40;;;8.30;;
76477;SDS011;65309;49.790;18.972;2023-06-22T16:01:33;10.45;;;8.90;;
76477;SDS011;65309;49.790;18.972;2023-06-22T16:06:35;10.48;;;9.30;;
76477;SDS011;65309;49.790;18.972;2023-06-22T16:11:39;12.10;;;9.05;;
76477;SDS011;65309;49.790;18.972;2023-06-22T16:16:41;9.32;;;8.32;;
76477;SDS011;65309;49.790;18.972;2023-06-22T16:21:43;9.85;;;8.68;;
76477;SDS011;65309;49.790;18.972;2023-06-22T16:26:46;11.63;;;9.25;;
76477;SDS011;65309;49.790;18.972;2023-06-22T16:31:49;9.73;;;8.55;;
76477;SDS011;65309;49.790;18.972;2023-06-22T16:36:51;9.15;;;8.25;;
76477;SDS011;65309;49.790;18.972;2023-06-22T16:41:55;9.07;;;8.15;;
76477;SDS011;65309;49.790;18.972;2023-06-22T16:46:58;12.45;;;9.27;;
76477;SDS011;65309;49.790;18.972;2023-06-22T16:52:00;10.57;;;8.35;;
76477;SDS011;65309;49.790;18.972;2023-06-22T16:57:04;10.45;;;8.45;;
76477;SDS011;65309;49.790;18.972;2023-06-22T17:02:08;11.27;;;8.80;;
76477;SDS011;65309;49.790;18.972;2023-06-22T17:07:18;8.77;;;7.63;;
76477;SDS011;65309;49.790;18.972;2023-06-22T17:12:23;11.57;;;9.50;;
76477;SDS011;65309;49.790;18.972;2023-06-22T17:17:26;9.95;;;8.68;;
76477;SDS011;65309;49.790;18.972;2023-06-22T17:22:31;14.90;;;9.30;;
76477;SDS011;65309;49.790;18.972;2023-06-22T17:27:38;12.65;;;9.38;;
76477;SDS011;65309;49.790;18.972;2023-06-22T17:32:43;11.75;;;9.77;;
76477;SDS011;65309;49.790;18.972;2023-06-22T17:37:47;11.43;;;9.50;;
76477;SDS011;65309;49.790;18.972;2023-06-22T17:42:52;10.75;;;8.98;;
76477;SDS011;65309;49.790;18.972;2023-06-22T17:48:06;11.13;;;9.88;;
76477;SDS011;65309;49.790;18.972;2023-06-22T17:53:11;11.13;;;9.05;;
76477;SDS011;65309;49.790;18.972;2023-06-22T17:58:15;11.60;;;9.55;;
76477;SDS011;65309;49.790;18.972;2023-06-22T18:03:17;12.18;;;9.15;;
76477;SDS011;65309;49.790;18.972;2023-06-22T18:08:25;11.15;;;9.23;;
76477;SDS011;65309;49.790;18.972;2023-06-22T18:13:29;13.07;;;10.10;;
76477;SDS011;65309;49.790;18.972;2023-06-22T18:18:32;11.55;;;9.45;;
76477;SDS011;65309;49.790;18.972;2023-06-22T18:23:36;11.23;;;9.65;;
76477;SDS011;65309;49.790;18.972;2023-06-22T18:28:40;11.70;;;8.80;;
76477;SDS011;65309;49.790;18.972;2023-06-22T18:33:42;12.35;;;9.35;;
76477;SDS011;65309;49.790;18.972;2023-06-22T18:38:44;12.60;;;9.48;;
76477;SDS011;65309;49.790;18.972;2023-06-22T18:43:54;11.60;;;9.40;;
76477;SDS011;65309;49.790;18.972;2023-06-22T18:48:58;14.85;;;8.85;;
76477;SDS011;65309;49.790;18.972;2023-06-22T18:54:04;11.35;;;9.10;;
76477;SDS011;65309;49.790;18.972;2023-06-22T18:59:12;14.02;;;9.35;;
76477;SDS011;65309;49.790;18.972;2023-06-22T19:04:14;10.18;;;8.95;;
76477;SDS011;65309;49.790;18.972;2023-06-22T19:09:17;12.38;;;9.10;;
76477;SDS011;65309;49.790;18.972;2023-06-22T19:14:22;12.73;;;8.93;;
76477;SDS011;65309;49.790;18.972;2023-06-22T19:19:24;13.25;;;9.77;;
76477;SDS011;65309;49.790;18.972;2023-06-22T19:24:27;11.95;;;8.98;;
76477;SDS011;65309;49.790;18.972;2023-06-22T19:29:32;10.93;;;9.07;;
76477;SDS011;65309;49.790;18.972;2023-06-22T19:34:35;11.32;;;8.85;;
76477;SDS011;65309;49.790;18.972;2023-06-22T19:39:45;12.23;;;8.68;;
76477;SDS011;65309;49.790;18.972;2023-06-22T19:44:49;11.68;;;9.02;;
76477;SDS011;65309;49.790;18.972;2023-06-22T19:49:57;13.57;;;9.05;;
76477;SDS011;65309;49.790;18.972;2023-06-22T19:54:59;12.63;;;8.52;;
76477;SDS011;65309;49.790;18.972;2023-06-22T20:00:03;13.30;;;9.40;;
76477;SDS011;65309;49.790;18.972;2023-06-22T20:05:14;11.40;;;8.30;;
76477;SDS011;65309;49.790;18.972;2023-06-22T20:10:17;14.32;;;9.40;;
76477;SDS011;65309;49.790;18.972;2023-06-22T20:15:22;11.20;;;8.82;;
76477;SDS011;65309;49.790;18.972;2023-06-22T20:20:25;13.32;;;8.80;;
76477;SDS011;65309;49.790;18.972;2023-06-22T20:25:29;13.32;;;10.20;;
76477;SDS011;65309;49.790;18.972;2023-06-22T20:30:34;15.45;;;10.10;;
76477;SDS011;65309;49.790;18.972;2023-06-22T20:35:36;14.95;;;10.45;;
76477;SDS011;65309;49.790;18.972;2023-06-22T20:40:39;13.70;;;9.93;;
76477;SDS011;65309;49.790;18.972;2023-06-22T20:45:42;12.38;;;9.77;;
76477;SDS011;65309;49.790;18.972;2023-06-22T20:50:44;12.25;;;9.95;;
76477;SDS011;65309;49.790;18.972;2023-06-22T20:55:46;12.38;;;10.30;;
76477;SDS011;65309;49.790;18.972;2023-06-22T21:00:50;13.48;;;10.52;;
76477;SDS011;65309;49.790;18.972;2023-06-22T21:05:52;14.77;;;11.15;;
76477;SDS011;65309;49.790;18.972;2023-06-22T21:10:54;13.20;;;10.35;;
76477;SDS011;65309;49.790;18.972;2023-06-22T21:15:57;13.88;;;10.32;;
76477;SDS011;65309;49.790;18.972;2023-06-22T21:20:59;13.68;;;11.80;;
76477;SDS011;65309;49.790;18.972;2023-06-22T21:26:01;10.98;;;9.48;;
76477;SDS011;65309;49.790;18.972;2023-06-22T21:31:05;13.90;;;10.80;;
76477;SDS011;65309;49.790;18.972;2023-06-22T21:36:07;15.40;;;12.05;;
76477;SDS011;65309;49.790;18.972;2023-06-22T21:41:09;13.43;;;11.38;;
76477;SDS011;65309;49.790;18.972;2023-06-22T21:46:12;14.50;;;11.00;;
76477;SDS011;65309;49.790;18.972;2023-06-22T21:51:14;13.75;;;10.70;;
76477;SDS011;65309;49.790;18.972;2023-06-22T21:56:17;18.58;;;11.52;;
76477;SDS011;65309;49.790;18.972;2023-06-22T22:01:20;16.13;;;10.52;;
76477;SDS011;65309;49.790;18.972;2023-06-22T22:06:22;16.85;;;11.77;;
76477;SDS011;65309;49.790;18.972;2023-06-22T22:11:25;13.82;;;11.60;;
76477;SDS011;65309;49.790;18.972;2023-06-22T22:16:28;15.63;;;11.57;;
76477;SDS011;65309;49.790;18.972;2023-06-22T22:21:30;16.17;;;12.45;;
76477;SDS011;65309;49.790;18.972;2023-06-22T22:26:32;18.10;;;12.27;;
76477;SDS011;65309;49.790;18.972;2023-06-22T22:31:39;16.80;;;12.70;;
76477;SDS011;65309;49.790;18.972;2023-06-22T22:36:41;17.42;;;11.70;;
76477;SDS011;65309;49.790;18.972;2023-06-22T22:41:44;18.40;;;13.48;;
76477;SDS011;65309;49.790;18.972;2023-06-22T22:46:47;19.27;;;12.57;;
76477;SDS011;65309;49.790;18.972;2023-06-22T22:51:49;16.63;;;12.13;;
76477;SDS011;65309;49.790;18.972;2023-06-22T22:56:52;17.20;;;12.43;;
76477;SDS011;65309;49.790;18.972;2023-06-22T23:01:55;15.05;;;13.02;;
76477;SDS011;65309;49.790;18.972;2023-06-22T23:06:57;15.82;;;13.40;;
76477;SDS011;65309;49.790;18.972;2023-06-22T23:12:01;19.05;;;13.02;;
76477;SDS011;65309;49.790;18.972;2023-06-22T23:17:04;17.67;;;13.23;;
76477;SDS011;65309;49.790;18.972;2023-06-22T23:22:06;20.92;;;14.80;;
76477;SDS011;65309;49.790;18.972;2023-06-22T23:27:08;19.95;;;13.93;;
76477;SDS011;65309;49.790;18.972;2023-06-22T23:32:15;18.30;;;15.15;;
76477;SDS011;65309;49.790;18.972;2023-06-22T23:37:17;18.95;;;15.25;;
76477;SDS011;65309;49.790;18.972;2023-06-22T23:42:19;18.55;;;14.82;;
76477;SDS011;65309;49.790;18.972;2023-06-22T23:47:24;20.45;;;14.50;;
76477;SDS011;65309;49.790;18.972;2023-06-22T23:52:28;19.55;;;14.98;;
